Time;durP1;ratioP1;P1;durP2;ratioP2;P2;SDS_P1;SDS_P2;PMS_P1;PMS_P2;Temp;Humidity;BMP_temperature;BMP_pressure;BME280_temperature;BME280_humidity;BME280_pressure;Samples;Min_cycle;Max_cycle;Signal;HPM_P1;HPM_P2
2022/04/02 00:01:18;;;;;;;34.22;18.77;;;;;;;3.32;76.28;97413.00;4231670;33;34614;-74
2022/04/02 00:03:47;;;;;;;35.15;18.62;;;;;;;3.53;74.37;97417.00;4233613;33;34848;-75
2022/04/02 00:06:15;;;;;;;30.98;16.15;;;;;;;3.56;74.77;97417.81;4243135;33;35999;-74
2022/04/02 00:08:44;;;;;;;33.22;17.52;;;;;;;3.21;76.45;97426.00;4233328;33;34483;-74
2022/04/02 00:11:12;;;;;;;34.10;18.62;;;;;;;2.93;76.71;97417.75;4242817;33;34600;-75
2022/04/02 00:13:40;;;;;;;37.38;17.83;;;;;;;2.90;76.99;97417.81;4233565;33;33780;-74
2022/04/02 00:16:08;;;;;;;34.17;17.10;;;;;;;2.25;79.28;97428.72;4232154;33;35922;-73
2022/04/02 00:18:39;;;;;;;31.27;15.95;;;;;;;2.39;79.75;97423.47;4243187;33;34725;-74
2022/04/02 00:21:07;;;;;;;34.03;17.23;;;;;;;2.95;77.90;97437.47;4242524;33;32903;-74
2022/04/02 00:23:43;;;;;;;31.67;18.15;;;;;;;2.87;77.22;97428.97;4233375;33;33886;-75
2022/04/02 00:26:19;;;;;;;32.08;17.02;;;;;;;3.34;75.15;97417.28;4241787;33;34958;-73
2022/04/02 00:28:49;;;;;;;36.42;17.05;;;;;;;2.67;77.44;97408.63;4218356;34;35058;-74
2022/04/02 00:31:18;;;;;;;31.25;16.92;;;;;;;2.97;76.18;97397.16;4230404;33;32991;-75
2022/04/02 00:33:48;;;;;;;31.98;16.75;;;;;;;2.68;77.67;97392.31;4232771;33;33752;-74
2022/04/02 00:36:21;;;;;;;34.28;17.10;;;;;;;3.08;76.13;97389.31;4230636;33;36021;-73
2022/04/02 00:38:49;;;;;;;35.90;17.83;;;;;;;2.92;76.17;97390.38;4242843;33;34513;-73
2022/04/02 00:41:17;;;;;;;32.45;16.87;;;;;;;2.46;77.55;97384.00;4232540;33;34488;-74
2022/04/02 00:44:01;;;;;;;31.23;17.00;;;;;;;2.25;79.32;97375.62;4233352;33;33792;-74
2022/04/02 00:46:29;;;;;;;34.72;17.50;;;;;;;2.24;78.79;97373.94;4231478;33;35842;-73
2022/04/02 00:48:57;;;;;;;35.20;18.15;;;;;;;2.07;78.97;97376.66;4233117;33;35174;-74
2022/04/02 00:51:26;;;;;;;32.35;18.08;;;;;;;2.29;78.15;97366.19;4232429;33;34565;-73
2022/04/02 00:53:54;;;;;;;28.75;14.65;;;;;;;2.07;79.27;97370.69;4232606;33;34338;-75
2022/04/02 00:56:22;;;;;;;36.47;18.27;;;;;;;2.38;77.47;97380.66;4232667;33;35995;-73
2022/04/02 00:58:50;;;;;;;34.65;17.45;;;;;;;1.94;79.65;97385.34;4233168;33;35234;-73
2022/04/02 01:01:18;;;;;;;31.27;16.67;;;;;;;1.86;80.89;97387.94;4242594;33;33937;-74
2022/04/02 01:03:48;;;;;;;28.75;16.02;;;;;;;2.15;79.12;97391.97;4233419;33;34965;-75
2022/04/02 01:06:18;;;;;;;29.73;14.30;;;;;;;2.26;78.71;97389.34;4232660;33;34449;-74
2022/04/02 01:08:47;;;;;;;36.22;18.77;;;;;;;1.99;79.89;97398.97;4233314;33;34531;-74
2022/04/02 01:11:15;;;;;;;34.45;17.73;;;;;;;1.78;80.65;97399.12;4219438;33;34449;-74
2022/04/02 01:13:44;;;;;;;34.97;18.50;;;;;;;2.30;78.63;97403.00;4232448;33;34804;-74
2022/04/02 01:16:13;;;;;;;30.83;18.10;;;;;;;2.51;77.12;97407.09;4232245;33;35126;-74
2022/04/02 01:18:42;;;;;;;31.37;18.25;;;;;;;2.05;79.24;97416.06;4220438;33;33683;-74
2022/04/02 01:21:11;;;;;;;33.05;18.10;;;;;;;2.25;78.00;97416.72;4232577;33;33839;-74
2022/04/02 01:23:40;;;;;;;29.37;15.98;;;;;;;1.99;78.87;97422.06;4231791;33;34846;-74
2022/04/02 01:26:09;;;;;;;31.27;16.52;;;;;;;2.12;79.22;97429.66;4231288;33;35134;-74
2022/04/02 01:28:37;;;;;;;33.28;17.10;;;;;;;1.80;80.03;97441.88;4220712;33;34539;-74
2022/04/02 01:31:07;;;;;;;28.85;15.63;;;;;;;2.11;77.38;97441.66;4230903;33;32103;-74
2022/04/02 01:33:36;;;;;;;30.20;16.00;;;;;;;2.12;78.09;97452.78;4231066;33;35314;-75
2022/04/02 01:36:06;;;;;;;30.65;15.23;;;;;;;2.14;77.64;97449.34;4230262;33;34457;-74
2022/04/02 01:38:38;;;;;;;25.58;14.55;;;;;;;2.48;76.87;97454.19;4233062;33;34760;-74
2022/04/02 01:41:06;;;;;;;27.67;15.85;;;;;;;2.52;75.85;97450.72;4231413;33;33852;-73
2022/04/02 01:43:38;;;;;;;26.15;13.93;;;;;;;2.44;76.07;97448.22;4230976;33;34601;-74
2022/04/02 01:46:07;;;;;;;28.80;15.60;;;;;;;2.49;76.78;97449.91;4242020;33;35048;-74
2022/04/02 01:48:35;;;;;;;26.17;13.90;;;;;;;2.73;74.70;97444.53;4231581;33;34450;-75
2022/04/02 01:51:04;;;;;;;29.70;15.40;;;;;;;2.65;75.86;97443.78;4242051;33;33744;-74
2022/04/02 01:53:32;;;;;;;28.10;14.18;;;;;;;1.75;78.76;97451.31;4231421;33;34001;-74
2022/04/02 01:56:02;;;;;;;26.55;14.00;;;;;;;2.58;76.01;97449.84;4231978;33;35277;-74
2022/04/02 01:58:31;;;;;;;28.05;14.60;;;;;;;2.79;74.87;97443.62;4243105;33;33851;-74
2022/04/02 02:01:00;;;;;;;29.70;15.07;;;;;;;2.27;76.03;97456.06;4231153;33;33927;-74
2022/04/02 02:03:29;;;;;;;28.30;15.07;;;;;;;2.27;76.43;97452.66;4219217;33;32915;-74
2022/04/02 02:05:57;;;;;;;25.00;13.43;;;;;;;2.90;74.43;97440.94;4230585;33;35044;-75
2022/04/02 02:08:26;;;;;;;25.60;13.77;;;;;;;2.45;75.68;97449.94;4232639;33;34451;-74
2022/04/02 02:10:56;;;;;;;31.15;15.85;;;;;;;2.69;74.86;97454.87;4230582;33;33667;-74
2022/04/02 02:13:26;;;;;;;27.50;15.13;;;;;;;2.13;77.63;97455.34;4231505;33;34006;-74
2022/04/02 02:15:54;;;;;;;28.12;15.45;;;;;;;2.32;76.45;97462.91;4231278;33;35416;-74
2022/04/02 02:18:22;;;;;;;32.03;15.48;;;;;;;1.98;78.24;97466.56;4232192;33;35160;-73
2022/04/02 02:20:50;;;;;;;25.80;15.10;;;;;;;2.71;75.38;97455.69;4231394;33;33630;-74
2022/04/02 02:23:19;;;;;;;26.45;14.07;;;;;;;2.20;76.98;97458.72;4232377;33;33897;-74
2022/04/02 02:25:47;;;;;;;22.92;12.35;;;;;;;2.49;76.47;97465.31;4233378;33;35041;-74
2022/04/02 02:28:16;;;;;;;26.70;13.52;;;;;;;3.15;73.41;97467.22;4244630;33;34042;-74
2022/04/02 02:30:45;;;;;;;26.25;14.48;;;;;;;2.89;74.02;97470.09;4242904;33;32886;-74
2022/04/02 02:36:00;;;;;;;;;;;;;;;2.97;72.74;97465.72;4242476;33;35968;-73
2022/04/02 02:38:29;;;;;;;31.83;13.45;;;;;;;2.65;73.56;97461.75;4244846;33;34794;-73
2022/04/02 02:40:58;;;;;;;24.63;14.02;;;;;;;2.71;74.07;97461.69;4243804;33;34494;-74
2022/04/02 02:43:27;;;;;;;25.70;12.70;;;;;;;2.53;74.07;97454.16;4244598;33;34101;-75
2022/04/02 02:45:59;;;;;;;25.80;13.60;;;;;;;2.51;74.57;97458.47;4233459;33;35070;-74
2022/04/02 02:48:28;;;;;;;24.15;13.48;;;;;;;3.20;72.25;97456.03;4234085;33;35421;-74
2022/04/02 02:50:56;;;;;;;25.30;13.15;;;;;;;2.83;72.31;97453.00;4232769;33;34567;-74
2022/04/02 02:53:25;;;;;;;24.55;13.93;;;;;;;3.07;71.74;97462.19;4233947;33;33946;-74
2022/04/02 02:55:53;;;;;;;23.92;13.18;;;;;;;3.18;70.91;97467.22;4233195;33;35091;-74
2022/04/02 02:58:21;;;;;;;23.75;13.13;;;;;;;3.26;71.00;97469.69;4228246;33;35285;-74
2022/04/02 03:00:49;;;;;;;24.25;13.38;;;;;;;3.19;71.19;97480.06;4231306;33;34550;-75
2022/04/02 03:03:18;;;;;;;25.83;13.25;;;;;;;2.52;73.86;97478.13;4232023;33;34644;-75
2022/04/02 03:05:47;;;;;;;26.08;14.02;;;;;;;2.70;74.05;97470.28;4231432;33;35908;-74
2022/04/02 03:08:16;;;;;;;24.55;12.10;;;;;;;2.07;76.32;97468.22;4231279;33;34961;-73
2022/04/02 03:10:45;;;;;;;22.13;14.27;;;;;;;1.93;76.72;97470.87;4220085;33;32928;-73
2022/04/02 03:13:14;;;;;;;23.98;13.65;;;;;;;2.44;74.86;97479.06;4233188;33;33959;-74
2022/04/02 03:15:43;;;;;;;24.83;13.10;;;;;;;2.94;72.70;97488.88;4231809;33;35031;-73
2022/04/02 03:18:12;;;;;;;25.37;13.45;;;;;;;2.18;74.63;97486.97;4232479;33;34599;-74
2022/04/02 03:20:41;;;;;;;23.65;13.25;;;;;;;2.67;73.21;97490.00;4224969;33;33844;-73
2022/04/02 03:23:09;;;;;;;23.17;12.98;;;;;;;2.52;73.61;97480.72;4227863;33;34419;-72
2022/04/02 03:25:38;;;;;;;21.87;12.32;;;;;;;2.64;73.44;97485.75;4231846;33;34787;-74
2022/04/02 03:28:07;;;;;;;24.50;13.55;;;;;;;2.64;72.51;97485.75;4233811;33;34501;-72
2022/04/02 03:30:35;;;;;;;26.20;14.48;;;;;;;2.72;72.17;97488.22;4220003;33;32312;-74
2022/04/02 03:33:05;;;;;;;26.20;13.75;;;;;;;2.37;74.37;97495.38;4232631;33;33270;-73
2022/04/02 03:35:34;;;;;;;25.52;13.20;;;;;;;2.41;73.65;97494.50;4231608;33;35062;-74
2022/04/02 03:38:03;;;;;;;25.35;14.05;;;;;;;2.65;72.66;97508.00;4233353;33;35396;-73
2022/04/02 03:40:31;;;;;;;25.65;13.23;;;;;;;2.74;72.40;97510.50;4232763;33;33963;-74
2022/04/02 03:42:59;;;;;;;23.98;11.57;;;;;;;3.31;69.92;97509.06;4232696;33;34817;-74
2022/04/02 03:45:28;;;;;;;25.55;13.55;;;;;;;2.91;72.16;97506.91;4232843;33;35075;-74
2022/04/02 03:47:57;;;;;;;23.60;13.68;;;;;;;2.16;75.34;97504.09;4233389;33;34555;-75
2022/04/02 03:50:25;;;;;;;31.10;14.25;;;;;;;2.25;75.03;97498.88;4232747;33;34553;-75
2022/04/02 03:52:54;;;;;;;24.90;13.80;;;;;;;2.26;75.10;97498.03;4233534;33;32996;-74
2022/04/02 03:55:22;;;;;;;27.55;15.57;;;;;;;2.30;75.07;97500.59;4232557;33;34960;-74
2022/04/02 03:57:52;;;;;;;25.95;14.25;;;;;;;1.71;77.45;97488.09;4232662;33;34514;-73
2022/04/02 04:00:20;;;;;;;26.37;13.70;;;;;;;1.89;77.45;97490.59;4232785;33;34666;-73
2022/04/02 04:02:50;;;;;;;23.08;13.68;;;;;;;1.46;78.71;97493.34;4233419;33;34817;-74
2022/04/02 04:05:19;;;;;;;24.23;13.55;;;;;;;2.47;74.86;97489.31;4232566;33;35192;-73
2022/04/02 04:07:47;;;;;;;27.70;13.82;;;;;;;2.61;73.96;97485.75;4233228;33;35365;-74
2022/04/02 04:10:16;;;;;;;27.83;14.52;;;;;;;2.55;74.28;97486.66;4232810;33;33754;-72
2022/04/02 04:12:47;;;;;;;29.15;14.57;;;;;;;2.59;73.17;97484.94;4219328;34;33782;-73
2022/04/02 04:15:16;;;;;;;23.20;13.50;;;;;;;2.52;74.58;97496.97;4233977;33;35886;-72
2022/04/02 04:17:45;;;;;;;28.48;15.63;;;;;;;2.27;75.01;97492.03;4233355;33;34521;-74
2022/04/02 04:20:13;;;;;;;26.05;15.32;;;;;;;2.08;76.02;97493.03;4232170;33;34564;-73
2022/04/02 04:22:41;;;;;;;25.20;14.90;;;;;;;2.31;74.46;97497.12;4233127;33;32081;-73
2022/04/02 04:25:10;;;;;;;25.62;13.57;;;;;;;2.23;75.27;97498.06;4233582;33;34721;-74
2022/04/02 04:27:39;;;;;;;27.17;14.60;;;;;;;2.17;76.37;97499.81;4232829;33;34278;-73
2022/04/02 04:30:09;;;;;;;28.12;15.32;;;;;;;1.79;77.81;97503.47;4232241;33;33128;-73
2022/04/02 04:32:52;;;;;;;25.00;14.05;;;;;;;1.93;77.50;97501.69;4232438;33;31815;-73
2022/04/02 04:35:25;;;;;;;29.12;14.68;;;;;;;2.28;76.25;97500.59;4220748;33;33550;-73
2022/04/02 04:37:54;;;;;;;28.58;13.98;;;;;;;3.20;71.93;97511.75;4229576;33;33808;-74
2022/04/02 04:40:30;;;;;;;26.27;14.60;;;;;;;3.11;71.27;97515.28;4206865;33;33975;-72
2022/04/02 04:43:00;;;;;;;27.10;14.18;;;;;;;2.18;74.85;97516.94;4218439;33;33199;-72
2022/04/02 04:45:28;;;;;;;28.58;14.73;;;;;;;2.71;73.89;97522.53;4233697;33;35737;-72
2022/04/02 04:47:59;;;;;;;27.33;16.12;;;;;;;1.86;76.37;97520.53;4216916;34;35309;-73
2022/04/02 04:50:28;;;;;;;25.02;13.30;;;;;;;1.96;76.05;97519.62;4218404;33;35781;-71
2022/04/02 04:52:57;;;;;;;28.83;14.82;;;;;;;2.57;73.96;97509.78;4219309;34;34036;-72
2022/04/02 04:55:27;;;;;;;25.92;14.30;;;;;;;1.69;77.30;97506.09;4218801;33;35973;-72
2022/04/02 04:57:56;;;;;;;23.80;13.90;;;;;;;2.49;75.34;97511.56;4219476;34;34495;-72
2022/04/02 05:00:25;;;;;;;26.05;14.77;;;;;;;2.31;74.39;97512.56;4222162;33;34696;-73
2022/04/02 05:02:55;;;;;;;27.92;16.48;;;;;;;2.57;73.95;97510.63;4233427;33;33393;-72
2022/04/02 05:05:28;;;;;;;28.55;14.38;;;;;;;2.60;73.78;97514.91;4233322;33;35932;-73
2022/04/02 05:08:01;;;;;;;38.20;18.67;;;;;;;2.90;73.25;97520.66;4229048;33;35473;-73
2022/04/02 05:10:32;;;;;;;34.20;17.35;;;;;;;2.83;72.93;97520.69;4218082;33;32948;-72
2022/04/02 05:13:02;;;;;;;31.25;15.00;;;;;;;2.41;74.19;97515.03;4232912;33;34955;-74
2022/04/02 05:15:31;;;;;;;36.15;16.80;;;;;;;3.04;73.05;97516.22;4242505;33;34275;-73
2022/04/02 05:18:01;;;;;;;26.02;14.85;;;;;;;3.07;71.93;97525.59;4243381;33;33009;-73
2022/04/02 05:20:30;;;;;;;35.05;21.37;;;;;;;2.76;73.29;97524.19;4242814;33;34310;-74
2022/04/02 05:22:58;;;;;;;40.25;25.73;;;;;;;3.11;73.05;97541.00;4231400;33;34431;-74
2022/04/02 05:25:26;;;;;;;48.35;26.52;;;;;;;2.94;73.12;97548.00;4232905;33;35752;-73
2022/04/02 05:27:55;;;;;;;31.37;17.92;;;;;;;2.48;75.40;97544.09;4232322;33;34610;-73
2022/04/02 05:30:27;;;;;;;28.48;17.23;;;;;;;2.67;74.56;97547.37;4231655;33;34556;-73
2022/04/02 05:32:57;;;;;;;36.08;20.88;;;;;;;2.89;73.78;97555.75;4220102;33;34021;-73
2022/04/02 05:35:25;;;;;;;55.35;33.63;;;;;;;3.11;73.58;97555.59;4232198;33;35044;-73
2022/04/02 05:37:57;;;;;;;42.33;24.52;;;;;;;3.06;73.72;97555.63;4232357;33;34506;-73
2022/04/02 05:40:25;;;;;;;31.30;18.08;;;;;;;3.08;73.30;97553.03;4232733;33;33747;-72
2022/04/02 05:42:54;;;;;;;28.20;14.80;;;;;;;3.48;71.18;97544.91;4231932;33;33708;-73
2022/04/02 05:45:21;;;;;;;26.85;14.18;;;;;;;3.50;70.72;97545.72;4232659;33;35032;-72
2022/04/02 05:47:54;;;;;;;25.65;13.43;;;;;;;3.59;71.04;97549.03;4232172;33;34549;-73
2022/04/02 05:50:24;;;;;;;30.90;15.40;;;;;;;3.49;71.42;97542.28;4230760;33;33567;-73
2022/04/02 05:53:07;;;;;;;24.48;14.32;;;;;;;3.32;71.72;97547.63;4231634;33;34775;-73
2022/04/02 05:55:35;;;;;;;28.48;16.45;;;;;;;3.57;72.18;97550.78;4232470;33;36052;-73
2022/04/02 05:58:04;;;;;;;24.27;13.23;;;;;;;3.67;71.29;97558.38;4242060;33;34623;-73
2022/04/02 06:00:32;;;;;;;28.55;14.85;;;;;;;4.07;70.30;97563.03;4234236;33;33840;-73
2022/04/02 06:03:04;;;;;;;28.75;14.20;;;;;;;3.89;71.01;97559.00;4233606;33;33804;-73
2022/04/02 06:05:32;;;;;;;26.92;14.18;;;;;;;3.80;71.76;97550.50;4243537;33;35262;-73
2022/04/02 06:07:59;;;;;;;20.42;11.55;;;;;;;4.04;71.32;97547.63;4233419;33;34555;-73
2022/04/02 06:10:28;;;;;;;24.98;14.07;;;;;;;4.34;69.91;97548.91;4234313;33;33966;-73
2022/04/02 06:12:56;;;;;;;30.95;17.27;;;;;;;3.85;71.56;97547.88;4233326;33;33978;-73
2022/04/02 06:15:25;;;;;;;27.40;15.05;;;;;;;3.88;71.39;97555.56;4234012;33;35971;-73
2022/04/02 06:17:54;;;;;;;29.87;16.60;;;;;;;4.18;70.74;97561.16;4233155;33;34421;-73
2022/04/02 06:20:22;;;;;;;29.58;16.45;;;;;;;4.18;71.15;97566.31;4233364;33;33753;-72
2022/04/02 06:22:50;;;;;;;31.73;16.83;;;;;;;4.24;71.78;97570.56;4243551;33;34014;-73
2022/04/02 06:25:19;;;;;;;27.20;15.43;;;;;;;4.55;70.57;97569.22;4244604;33;35360;-73
2022/04/02 06:27:47;;;;;;;31.90;16.58;;;;;;;4.72;70.52;97575.84;4243824;33;33878;-73
2022/04/02 06:30:18;;;;;;;26.30;16.65;;;;;;;5.12;70.16;97572.59;4234181;33;33650;-73
2022/04/02 06:32:56;;;;;;;30.85;17.08;;;;;;;5.07;67.61;97574.41;4243012;33;33779;-73
2022/04/02 06:35:25;;;;;;;26.05;14.75;;;;;;;4.97;70.01;97583.19;4233837;33;35020;-73
2022/04/02 06:37:54;;;;;;;22.77;13.73;;;;;;;4.86;70.97;97578.19;4232176;33;35285;-73
2022/04/02 06:40:24;;;;;;;24.25;14.80;;;;;;;5.21;66.39;97575.00;4244413;33;34056;-72
2022/04/02 06:42:52;;;;;;;26.10;14.18;;;;;;;4.72;70.24;97583.56;4233344;33;34039;-72
2022/04/02 06:45:23;;;;;;;27.83;14.93;;;;;;;4.83;69.15;97584.25;4232948;33;33900;-72
2022/04/02 06:47:51;;;;;;;25.77;13.48;;;;;;;4.41;69.94;97578.03;4232180;33;35384;-73
2022/04/02 06:50:20;;;;;;;28.60;15.13;;;;;;;5.04;68.80;97577.03;4232153;33;33855;-72
2022/04/02 06:52:48;;;;;;;26.33;13.07;;;;;;;5.07;69.35;97589.88;4233219;33;34654;-72
2022/04/02 06:55:16;;;;;;;24.83;13.75;;;;;;;5.47;67.65;97584.00;4232244;33;35188;-73
2022/04/02 06:58:06;;;;;;;44.53;26.70;;;;;;;5.23;69.92;97593.06;4233222;33;34445;-73
2022/04/02 07:00:34;;;;;;;110.70;63.03;;;;;;;5.09;69.51;97588.97;4234085;33;34615;-72
2022/04/02 07:03:02;;;;;;;70.22;44.15;;;;;;;4.86;70.43;97594.50;4233317;33;34025;-72
2022/04/02 07:05:30;;;;;;;29.67;20.62;;;;;;;5.08;69.07;97587.28;4233790;33;35895;-73
2022/04/02 07:07:58;;;;;;;29.20;20.83;;;;;;;4.87;70.77;97592.78;4231891;33;35162;-73
2022/04/02 07:10:26;;;;;;;25.40;15.55;;;;;;;5.34;68.88;97596.28;4233170;33;34592;-73
2022/04/02 07:12:54;;;;;;;33.08;19.30;;;;;;;5.79;66.41;97591.16;4232851;33;33744;-73
2022/04/02 07:15:22;;;;;;;26.37;14.43;;;;;;;5.93;66.26;97601.22;4233684;33;34989;-72
2022/04/02 07:17:50;;;;;;;24.85;15.80;;;;;;;5.79;66.93;97601.47;4233095;33;34517;-73
2022/04/02 07:20:19;;;;;;;30.65;21.77;;;;;;;5.55;68.08;97602.78;4233842;33;34390;-72
2022/04/02 07:22:47;;;;;;;25.10;14.23;;;;;;;5.53;67.13;97598.53;4230321;33;34732;-73
2022/04/02 07:25:16;;;;;;;22.87;13.30;;;;;;;6.13;66.13;97602.56;4231917;33;35007;-72
2022/04/02 07:27:44;;;;;;;22.48;12.95;;;;;;;5.13;70.48;97606.13;4232111;33;34489;-73
2022/04/02 07:30:13;;;;;;;22.77;13.57;;;;;;;5.78;66.90;97609.25;4232923;33;34183;-73
2022/04/02 07:32:41;;;;;;;26.08;13.00;;;;;;;5.68;65.99;97605.97;4232963;33;33984;-73
2022/04/02 07:35:10;;;;;;;22.02;13.27;;;;;;;5.77;67.91;97608.41;4231836;33;35125;-73
2022/04/02 07:37:40;;;;;;;22.75;11.82;;;;;;;5.63;68.08;97611.25;4232114;33;34498;-72
2022/04/02 07:40:18;;;;;;;24.63;11.02;;;;;;;5.45;68.48;97615.03;4232579;33;33710;-72
2022/04/02 07:43:06;;;;;;;19.05;10.15;;;;;;;6.16;66.93;97603.34;4232016;33;33812;-73
2022/04/02 07:45:43;;;;;;;21.50;11.75;;;;;;;6.08;64.70;97610.41;4233755;33;35095;-71
2022/04/02 07:48:12;;;;;;;18.02;10.55;;;;;;;5.23;68.03;97614.53;4231828;33;33650;-72
2022/04/02 07:50:45;;;;;;;15.88;9.80;;;;;;;5.60;67.68;97616.47;4244198;33;34647;-73
2022/04/02 07:53:22;;;;;;;17.15;10.00;;;;;;;5.39;66.30;97620.28;4242981;33;34598;-73
2022/04/02 07:56:03;;;;;;;18.73;11.12;;;;;;;5.73;67.23;97622.25;4244185;33;35879;-72
2022/04/02 07:58:32;;;;;;;18.87;10.55;;;;;;;6.22;66.79;97618.72;4231424;33;33871;-70
2022/04/02 08:01:03;;;;;;;17.80;10.10;;;;;;;5.77;65.50;97613.56;4233816;33;33781;-72
2022/04/02 08:03:33;;;;;;;17.98;11.20;;;;;;;5.75;66.41;97630.81;4233178;33;33964;-72
2022/04/02 08:06:02;;;;;;;17.90;9.93;;;;;;;5.30;68.46;97638.53;4231958;33;33628;-73
2022/04/02 08:08:30;;;;;;;16.40;9.70;;;;;;;5.89;66.71;97631.41;4232777;33;34613;-73
2022/04/02 08:11:01;;;;;;;17.42;11.02;;;;;;;6.36;66.04;97627.91;4233444;33;34677;-72
2022/04/02 08:13:30;;;;;;;16.42;9.85;;;;;;;5.94;68.54;97628.72;4242968;33;33138;-72
2022/04/02 08:15:59;;;;;;;19.23;10.57;;;;;;;6.70;64.45;97627.16;4220990;33;35137;-73
2022/04/02 08:18:27;;;;;;;75.87;43.00;;;;;;;5.98;68.10;97635.59;4231207;33;34475;-73
2022/04/02 08:20:55;;;;;;;117.72;64.45;;;;;;;5.71;68.98;97639.50;4231647;33;33623;-73
2022/04/02 08:23:24;;;;;;;205.98;101.97;;;;;;;6.08;67.60;97628.47;4219833;33;33354;-74
2022/04/02 08:26:11;;;;;;;236.30;99.05;;;;;;;6.16;67.31;97642.12;4232321;33;35041;-74
2022/04/02 08:28:49;;;;;;;167.52;80.32;;;;;;;6.66;64.96;97635.88;4232859;33;34533;-74
2022/04/02 08:31:29;;;;;;;42.00;24.20;;;;;;;6.76;64.05;97638.22;4220882;33;33893;-74
2022/04/02 08:34:37;;;;;;;37.30;20.27;;;;;;;6.66;66.33;97651.41;4233035;33;35712;-74
2022/04/02 08:37:17;;;;;;;24.55;13.93;;;;;;;6.93;63.25;97645.59;4219234;33;34237;-73
2022/04/02 08:40:08;;;;;;;24.85;13.62;;;;;;;7.10;66.58;97652.13;4232242;33;34642;-73
2022/04/02 08:42:45;;;;;;;18.12;10.32;;;;;;;7.37;62.99;97651.41;4230566;33;34545;-74
2022/04/02 08:45:15;;;;;;;18.15;10.57;;;;;;;7.42;62.47;97650.47;4232040;33;33682;-74
2022/04/02 08:48:07;;;;;;;17.40;10.98;;;;;;;7.20;63.94;97653.59;4232376;33;34820;-73
2022/04/02 08:50:37;;;;;;;16.42;10.65;;;;;;;7.08;64.92;97659.06;4233158;33;33946;-74
2022/04/02 08:53:14;;;;;;;19.25;11.23;;;;;;;7.25;62.58;97661.25;4232311;33;32665;-73
2022/04/02 08:55:58;;;;;;;20.23;10.82;;;;;;;7.63;64.18;97662.88;4232500;33;33847;-75
2022/04/02 08:58:40;;;;;;;18.58;10.02;;;;;;;7.13;65.60;97668.44;4230999;33;35036;-74
2022/04/02 09:01:10;;;;;;;20.02;11.00;;;;;;;7.28;64.73;97664.59;4243355;33;35286;-73
2022/04/02 09:03:59;;;;;;;15.75;9.23;;;;;;;7.80;61.95;97665.03;4231817;33;33871;-72
2022/04/02 09:06:55;;;;;;;18.25;10.18;;;;;;;7.59;62.17;97672.47;4219193;34;34778;-74
2022/04/02 09:09:36;;;;;;;16.95;9.90;;;;;;;7.49;61.53;97664.97;4229554;33;35847;-73
2022/04/02 09:12:10;;;;;;;21.50;12.80;;;;;;;7.50;62.96;97661.47;4220945;33;35322;-74
2022/04/02 09:14:56;;;;;;;20.37;10.48;;;;;;;7.33;62.75;97674.84;4231964;33;33795;-73
2022/04/02 09:17:33;;;;;;;19.10;10.68;;;;;;;7.71;62.43;97675.59;4223079;33;34036;-74
2022/04/02 09:20:14;;;;;;;18.95;10.52;;;;;;;7.05;64.92;97685.84;4233123;33;34905;-75
2022/04/02 09:22:57;;;;;;;15.95;9.48;;;;;;;7.23;63.75;97687.16;4232243;33;34557;-74
2022/04/02 09:25:47;;;;;;;20.23;10.95;;;;;;;7.13;65.44;97688.25;4233054;33;33589;-74
2022/04/02 09:28:25;;;;;;;17.60;10.18;;;;;;;6.96;65.62;97697.28;4230287;33;33658;-74
2022/04/02 09:31:21;;;;;;;15.27;9.80;;;;;;;7.45;62.70;97695.28;4232830;33;35114;-74
2022/04/02 09:34:20;;;;;;;16.62;9.23;;;;;;;7.86;62.86;97695.09;4227559;33;33727;-74
2022/04/02 09:37:09;;;;;;;15.63;9.48;;;;;;;7.35;63.71;97698.97;4230412;33;33462;-72
2022/04/02 09:40:09;;;;;;;15.07;8.77;;;;;;;7.17;63.56;97703.69;4218858;34;33858;-74
2022/04/02 09:42:43;;;;;;;15.68;9.18;;;;;;;7.33;64.32;97696.41;4230812;33;35862;-73
2022/04/02 09:45:13;;;;;;;19.23;9.93;;;;;;;7.25;63.90;97708.69;4229978;33;34627;-74
2022/04/02 09:48:38;;;;;;;17.73;10.50;;;;;;;7.80;61.74;97703.91;4232032;33;33098;-74
2022/04/02 09:51:07;;;;;;;16.62;8.50;;;;;;;7.22;65.69;97708.78;4188861;34;34615;-73
2022/04/02 09:53:41;;;;;;;17.48;10.32;;;;;;;8.10;60.59;97712.59;4174372;34;34942;-74
2022/04/02 09:56:34;;;;;;;18.12;9.95;;;;;;;7.62;62.85;97718.12;4198260;34;34523;-74
2022/04/02 09:59:04;;;;;;;20.50;10.48;;;;;;;7.36;62.52;97727.41;4230456;33;33738;-73
2022/04/02 10:01:39;;;;;;;18.90;10.07;;;;;;;6.95;65.24;97726.62;4232563;33;33554;-73
2022/04/02 10:04:08;;;;;;;15.98;9.18;;;;;;;7.51;63.31;97720.16;4231742;33;35052;-74
2022/04/02 10:06:40;;;;;;;14.32;8.77;;;;;;;7.09;64.43;97723.72;4232454;33;34397;-74
2022/04/02 10:09:13;;;;;;;15.65;8.77;;;;;;;7.05;63.43;97729.84;4231609;33;33612;-74
2022/04/02 10:11:55;;;;;;;15.05;8.18;;;;;;;7.48;63.29;97721.09;4242797;33;34777;-74
2022/04/02 10:14:27;;;;;;;16.65;9.25;;;;;;;7.35;61.89;97730.03;4231828;33;35185;-74
2022/04/02 10:17:04;;;;;;;16.98;8.80;;;;;;;7.30;63.58;97718.94;4232236;33;34598;-74
2022/04/02 10:19:34;;;;;;;15.05;7.93;;;;;;;7.16;63.01;97727.03;4230824;33;33548;-74
2022/04/02 10:22:08;;;;;;;17.60;7.70;;;;;;;7.07;63.66;97729.81;4231915;33;33657;-73
2022/04/02 10:24:38;;;;;;;16.65;8.10;;;;;;;7.10;62.04;97737.53;4230493;33;35040;-74
2022/04/02 10:27:09;;;;;;;13.82;8.02;;;;;;;6.67;64.35;97738.44;4231559;33;35338;-74
2022/04/02 10:30:03;;;;;;;12.73;7.30;;;;;;;7.07;63.83;97735.00;4232288;33;33679;-74
2022/04/02 10:32:33;;;;;;;11.07;6.78;;;;;;;7.30;62.04;97734.47;4224345;33;33746;-73
2022/04/02 10:35:05;;;;;;;14.90;7.90;;;;;;;7.16;61.62;97724.44;4232032;33;35903;-74
2022/04/02 10:37:44;;;;;;;13.52;7.30;;;;;;;6.78;63.08;97726.16;4230299;33;34423;-74
2022/04/02 10:40:17;;;;;;;15.80;8.52;;;;;;;6.58;63.81;97729.13;4231075;33;33716;-73
2022/04/02 10:42:59;;;;;;;13.82;7.55;;;;;;;6.52;63.53;97731.88;4231277;33;34780;-74
2022/04/02 10:45:28;;;;;;;13.75;8.05;;;;;;;6.30;64.07;97727.13;4231047;33;34922;-74
2022/04/02 10:48:09;;;;;;;12.95;7.28;;;;;;;6.71;62.86;97735.78;4233363;33;34464;-74
2022/04/02 10:50:38;;;;;;;13.20;7.12;;;;;;;6.70;62.93;97731.47;4233018;33;33646;-73
2022/04/02 10:53:10;;;;;;;15.07;8.07;;;;;;;6.31;64.42;97740.91;4220658;33;33080;-74
2022/04/02 10:55:45;;;;;;;15.35;8.43;;;;;;;6.81;63.85;97739.88;4234006;33;35009;-75
2022/04/02 10:58:14;;;;;;;12.50;7.65;;;;;;;6.30;64.64;97741.78;4233211;33;35306;-74
2022/04/02 11:00:45;;;;;;;16.45;9.13;;;;;;;6.19;64.33;97750.56;4232866;33;34505;-73
2022/04/02 11:03:26;;;;;;;11.38;6.62;;;;;;;6.82;63.42;97748.47;4233283;33;33873;-73
2022/04/02 11:05:56;;;;;;;12.43;6.90;;;;;;;6.69;62.69;97745.31;4232862;33;34225;-74
2022/04/02 11:08:29;;;;;;;13.60;7.03;;;;;;;6.21;65.15;97756.59;4232068;33;34338;-72
2022/04/02 11:10:59;;;;;;;11.85;7.30;;;;;;;6.83;62.35;97763.13;4233892;33;34585;-74
2022/04/02 11:13:32;;;;;;;14.05;7.85;;;;;;;6.63;63.63;97766.09;4231905;33;34783;-74
2022/04/02 11:16:00;;;;;;;12.95;8.52;;;;;;;6.87;63.63;97764.75;4233604;33;35879;-74
2022/04/02 11:18:28;;;;;;;13.00;7.55;;;;;;;6.70;63.39;97769.44;4231910;33;34386;-73
2022/04/02 11:21:04;;;;;;;13.55;8.15;;;;;;;7.06;62.83;97760.03;4232807;33;34505;-74
2022/04/02 11:24:02;;;;;;;13.45;8.05;;;;;;;6.61;63.95;97758.38;4231724;33;34028;-73
2022/04/02 11:26:32;;;;;;;12.75;7.68;;;;;;;6.36;63.84;97757.19;4210071;34;35967;-73
2022/04/02 11:29:02;;;;;;;12.40;6.90;;;;;;;6.68;62.91;97758.25;4217168;33;33407;-74
2022/04/02 11:31:30;;;;;;;13.20;6.93;;;;;;;6.80;62.90;97764.03;4244248;33;33679;-73
2022/04/02 11:34:09;;;;;;;12.60;6.85;;;;;;;6.49;64.46;97762.94;4232956;33;34633;-74
2022/04/02 11:36:42;;;;;;;14.10;8.10;;;;;;;6.96;62.79;97763.72;4243267;33;35286;-74
2022/04/02 11:39:31;;;;;;;15.43;8.60;;;;;;;6.83;61.78;97765.72;4233136;33;34603;-74
2022/04/02 11:42:01;;;;;;;13.27;7.03;;;;;;;6.22;65.49;97770.34;4233028;33;33692;-74
2022/04/02 11:44:36;;;;;;;13.62;7.10;;;;;;;6.60;62.93;97768.75;4231915;33;34730;-73
2022/04/02 11:47:06;;;;;;;11.95;6.43;;;;;;;6.37;64.42;97770.06;4233777;33;35051;-73
2022/04/02 11:49:40;;;;;;;13.20;7.70;;;;;;;6.39;64.14;97767.47;4231798;33;33745;-73
2022/04/02 11:52:10;;;;;;;14.57;8.48;;;;;;;6.44;64.74;97771.66;4233684;33;33782;-74